Home > Products > Valid Products > MTR

000
SAUS43 KMQT 311403 COR
MTRP53
METAR KP53 311356Z AUTO 24006KT M07/M12 A3011 RMK AO1 SLP208
T10671117





000
SAUS43 KMQT 311352
MTRP59
METAR KP59 311351Z AUTO 36019KT M05/M08 A3010 RMK AO1 SLP210
T10501083





000
SAUS43 KMQT 311303 COR
MTRP53
METAR KP53 311256Z AUTO 23005KT M07/M12 A3009 RMK AO1 SLP203
T10721122





000
SAUS43 KMQT 311253
MTRP59
METAR KP59 311251Z AUTO 36018KT M04/M08 A3007 RMK AO1 SLP201
T10441083





000
SAUS43 KMQT 311203 COR
MTRP53
METAR KP53 311156Z AUTO 22007KT M08/M12 A3010 RMK AO1 SLP205 60003
70005 T10781122 11078 21089 56012





000
SAUS43 KMQT 311153
MTRP59
METAR KP59 311151Z AUTO 36016G22KT M04/M08 A3005 RMK AO1 SLP193
60001 70002 T10391078 11039 21089 56007





000
SAUS43 KMQT 311103 COR
MTRP53
METAR KP53 311056Z AUTO 22007KT M08/M12 A3010 RMK AO1 SLP207
T10781117





000
SAUS43 KMQT 311053
MTRP59
METAR KP59 311051Z AUTO VRB06KT M08/M11 A3005 RMK AO1 SLP194
T10781111





000
SAUS43 KMQT 311003 COR
MTRP53
METAR KP53 310956Z AUTO 22007KT M08/M11 A3012 RMK AO1 SLP211
T10781111





000
SAUS43 KMQT 310952
MTRP59
METAR KP59 310951Z AUTO 25007KT 220V280 M08/M11 A3005 RMK AO1 SLP196
T10781111





000
SAUS43 KMQT 310903 COR
MTRP53
METAR KP53 310856Z AUTO 21006KT M08/M11 A3013 RMK AO1 SLP216 P0001
60003 T10781111 58026





000
SAUS43 KMQT 310854
MTRP59
METAR KP59 310851Z AUTO VRB06KT M08/M11 A3007 RMK AO1 SLP203 60001
T10831111 56027





000
SAUS43 KMQT 310758
MTRP53
METAR KP53 310756Z AUTO 20007KT M08/M12 A3016 RMK AO1 SLP226 P0001
T10831117





000
SAUS43 KMQT 310754
MTRP59
METAR KP59 310751Z AUTO 24008KT M08/M12 A3009 RMK AO1 SLP209
T10831117





000
SAUS43 KMQT 310657
MTRP53
METAR KP53 310656Z AUTO 20005KT M08/M12 A3019 RMK AO1 SLP237 P0001
T10831117





000
SAUS43 KMQT 310654
MTRP59
METAR KP59 310651Z AUTO 24007KT M09/M12 A3011 RMK AO1 SLP218 P0001
T10891117





000
SAUS43 KMQT 310557
MTRP53
METAR KP53 310556Z AUTO 19006KT M09/M12 A3021 RMK AO1 SLP243
T10891122 11089 21100 58021





000
SAUS43 KMQT 310553
MTRP59
METAR KP59 310551Z AUTO 24008KT M08/M12 A3015 RMK AO1 SLP231
T10831117 11078 21094 57020





000
SAUS43 KMQT 310457
MTRP53
METAR KP53 310456Z AUTO 18005KT M09/M13 A3023 RMK AO1 SLP252
T10941133 410721100





000
SAUS43 KMQT 310453
MTRP59
METAR KP59 310451Z AUTO 25007KT M08/M12 A3018 RMK AO1 SLP239
T10831122 410781117





000
SAUS43 KMQT 310357
MTRP53
METAR KP53 310356Z AUTO 20006KT M09/M14 A3025 RMK AO1 SLP257
T10891144





000
SAUS43 KMQT 310353
MTRP59
METAR KP59 310351Z AUTO 26005KT M08/M14 A3019 RMK AO1 SLP243
T10781144





000
SAUS43 KMQT 310257
MTRP53
METAR KP53 310256Z AUTO 20009KT M09/M16 A3027 RMK AO1 SLP265
T10941156 58022





000
SAUS43 KMQT 310254
MTRP59
METAR KP59 310251Z AUTO 25003KT M09/M14 A3021 RMK AO1 SLP252
T10891144 57026





000
SAUS43 KMQT 310157
MTRP53
METAR KP53 310156Z AUTO 20006KT M10/M16 A3030 RMK AO1 SLP273
T11001161





000
SAUS43 KMQT 310154
MTRP59
METAR KP59 310151Z AUTO 25005KT M09/M14 A3024 RMK AO1 SLP260
T10891139





000
SAUS43 KMQT 310057
MTRP53
METAR KP53 310056Z AUTO 19003KT M10/M15 A3032 RMK AO1 SLP282
T11001150





000
SAUS43 KMQT 310054
MTRP59
METAR KP59 310051Z AUTO 26006KT M09/M13 A3026 RMK AO1 SLP270
T10941133





000
SAUS43 KMQT 302357
MTRP53
METAR KP53 302356Z AUTO 00000KT M10/M15 A3034 RMK AO1 SLP287 60001
T11001150 11072 21100 58017





000
SAUS43 KMQT 302354
MTRP59
METAR KP59 302351Z AUTO 24005KT M09/M13 A3029 RMK AO1 SLP278 60001
T10941133 11094 21106 56024





000
SAUS43 KMQT 302257
MTRP53
METAR KP53 302256Z AUTO 00000KT M09/M15 A3035 RMK AO1 SLP293
T10941150





000
SAUS43 KMQT 302254
MTRP59
METAR KP59 302251Z AUTO 26003KT M09/M14 A3031 RMK AO1 SLP286
T10941144





000
SAUS43 KMQT 302157
MTRP53
METAR KP53 302156Z AUTO 00000KT M09/M16 A3038 RMK AO1 SLP302
T10941161





000
SAUS43 KMQT 302153
MTRP59
METAR KP59 302151Z AUTO 24003KT M09/M15 A3033 RMK AO1 SLP294
T10941150





000
SAUS43 KMQT 302058
MTRP53
METAR KP53 302056Z AUTO 00000KT M07/M16 A3039 RMK AO1 SLP304 60001
T10721161 56018





000
SAUS43 KMQT 302054
MTRP59
METAR KP59 302051Z AUTO 24003KT M09/M15 A3036 RMK AO1 SLP303 60001
T10941150 56026





000
SAUS43 KMQT 301957
MTRP53
METAR KP53 301956Z AUTO 24006KT M08/M15 A3040 RMK AO1 SLP308
T10781150





000
SAUS43 KMQT 301954
MTRP59
METAR KP59 301951Z AUTO 35005KT M09/M14 A3038 RMK AO1 SLP309
T10941144





000
SAUS43 KMQT 301857
MTRP53
METAR KP53 301856Z AUTO 27006KT M08/M14 A3042 RMK AO1 SLP314 P0001
T10831139





000
SAUS43 KMQT 301854
MTRP59
METAR KP59 301851Z AUTO 02004KT M11/M16 A3040 RMK AO1 SLP315 P0001
T11061156





000
SAUS43 KMQT 301757
MTRP53
METAR KP53 301756Z AUTO 33008KT M08/M16 A3044 RMK AO1 SLP322 60001
T10831156 11083 21089 58004





000
SAUS43 KMQT 301754
MTRP59
METAR KP59 301751Z AUTO 33004KT M11/M15 A3044 RMK AO1 SLP330
T11061150 11106 21117 58010





000
SAUS43 KMQT 301657
MTRP53
METAR KP53 301656Z AUTO 33009KT M08/M14 A3046 RMK AO1 SLP328
T10831144





000
SAUS43 KMQT 301654
MTRP59
METAR KP59 301651Z AUTO 01009KT M11/M16 A3047 RMK AO1 SLP341
T11111161





000
SAUS43 KMQT 301557
MTRP53
METAR KP53 301556Z AUTO 33012KT M08/M16 A3047 RMK AO1 SLP330
T10831156





000
SAUS43 KMQT 301554
MTRP59
METAR KP59 301551Z AUTO 32007G15KT M11/M17 A3048 RMK AO1 SLP342
T11111167





000
SAUS43 KMQT 301457
MTRP53
METAR KP53 301456Z AUTO 31009KT M09/M13 A3046 RMK AO1 SLP327 P0001
60001 T10891133 53012





000
SAUS43 KMQT 301454
MTRP59
METAR KP59 301451Z AUTO 01010KT M11/M16 A3047 RMK AO1 SLP340
T11111161 53004





000
SAUS43 KMQT 301358
MTRP53
METAR KP53 301356Z AUTO 33011KT M09/M16 A3044 RMK AO1 SLP322
T10891156





000
SAUS43 KMQT 301354
MTRP59
METAR KP59 301351Z AUTO 35009G20KT M11/M16 A3046 RMK AO1 SLP336
T11111161





000
SAUS43 KMQT 301257
MTRP53
METAR KP53 301256Z AUTO 35013G18KT M09/M15 A3043 RMK AO1 SLP318
T10891150





000
SAUS43 KMQT 301254
MTRP59
METAR KP59 301251Z AUTO 02013G18KT M11/M16 A3045 RMK AO1 SLP333
T11111156





000
SAUS43 KMQT 301157
MTRP53
METAR KP53 301156Z AUTO 01012KT M09/M14 A3042 RMK AO1 SLP315 60002
70006 T10891144 11083 21094 51014





000
SAUS43 KMQT 301153
MTRP59
METAR KP59 301151Z AUTO 02013G20KT M11/M16 A3046 RMK AO1 SLP335
T11111156 11100 21111 51007





000
SAUS43 KMQT 301057
MTRP53
METAR KP53 301056Z AUTO 35013KT M09/M14 A3041 RMK AO1 SLP312
T10891144





000
SAUS43 KMQT 301054
MTRP59
METAR KP59 301051Z AUTO 36014G20KT M11/M15 A3045 RMK AO1 SLP332
T11111150





000
SAUS43 KMQT 300957
MTRP53
METAR KP53 300956Z AUTO 35013KT M09/M14 A3040 RMK AO1 PK WND
01026/0923 SLP306 T10891144





000
SAUS43 KMQT 300954
MTRP59
METAR KP59 300951Z AUTO 01017G23KT M11/M16 A3044 RMK AO1 SLP329
T11061156





000
SAUS43 KMQT 300857
MTRP53
METAR KP53 300856Z AUTO 36015G25KT M09/M13 A3038 RMK AO1 SLP300
60002 T10891128 53020





000
SAUS43 KMQT 300853
MTRP59
METAR KP59 300851Z AUTO 03018G25KT M11/M14 A3043 RMK AO1 PK WND
02026/0827 SLP326 T11061144 53013





000
SAUS43 KMQT 300757
MTRP53
METAR KP53 300756Z AUTO 35014KT M08/M14 A3036 RMK AO1 PK WND
36027/0733 SLP291 P0001 T10831144





000
SAUS43 KMQT 300754
MTRP59
METAR KP59 300751Z AUTO 01016G25KT M11/M14 A3043 RMK AO1 PK WND
01028/0739 SLP325 T11061144





000
SAUS43 KMQT 300658
MTRP53
METAR KP53 300656Z AUTO 35019G25KT M08/M12 A3034 RMK AO1 PK WND
35029/0557 SLP285 P0001 T10831117





000
SAUS43 KMQT 300653
MTRP59
METAR KP59 300651Z AUTO 02019G26KT M11/M14 A3040 RMK AO1 PK WND
01029/0621 SLP315 T11061139





000
SAUS43 KMQT 300604 COR
MTRP53
METAR KP53 300556Z AUTO 35021G26KT M08/M12 A3032 RMK AO1 PK WND
35027/0534 SLP279 P0001 60003 T10831117 11056 21089 51025





000
SAUS43 KMQT 300603 COR
MTRP53
METAR KP53 300556Z AUTO 35021G26KT M08/M12 A3032 RMK AO1 PK WND
35027/0534 SLP279 P0001 60003 T10831117 11056 21089 51025





000
SAUS43 KMQT 300558 COR
MTRP53
METAR KP53 300556Z AUTO 35021G26KT M08/M12 A3032 RMK AO1 PK WND
35027/0534 SLP279 P0001 60003 T10831117 11056 21089 51025





000
SAUS43 KMQT 300557
MTRP53
METAR KP53 300556Z AUTO 35021G26KT M08/M12 A3032 RMK AO1 PK WND
35027/0534 SLP279 P0001 60003 T10831117 11056 21089 51025





000
SAUS43 KMQT 300553
MTRP59
METAR KP59 300551Z AUTO 03020G27KT M10/M13 A3040 RMK AO1 PK WND
04030/0516 SLP313 T11001133 11072 21100 51018





000
SAUS43 KMQT 300457
MTRP53
METAR KP53 300456Z AUTO 35016KT M08/M12 A3030 RMK AO1 PK WND
35028/0428 SLP270 P0001 T10781117 400061078





000
SAUS43 KMQT 300454
MTRP59
METAR KP59 300451Z AUTO 04020G30KT M09/M12 A3038 RMK AO1 PK WND
03032/0427 SLP306 T10941122 400001094





000
SAUS43 KMQT 300358
MTRP53
METAR KP53 300356Z AUTO 36023G28KT M08/M12 A3027 RMK AO1 PK WND
01029/0333 SLP260 T10781117





000
SAUS43 KMQT 300353
MTRP59
METAR KP59 300351Z AUTO 04019G30KT M09/M12 A3036 RMK AO1 PK WND
03031/0259 SLP299 T10891122





000
SAUS43 KMQT 300257
MTRP53
METAR KP53 300256Z AUTO 35018G27KT M07/M12 A3024 RMK AO1 PK WND
01032/0218 SLP252 60001 T10721117 51042





000
SAUS43 KMQT 300254
MTRP59
METAR KP59 300251Z AUTO 04022G31KT M09/M13 A3034 RMK AO1 PK WND
03032/0153 SLP292 T10891128 51040





000
SAUS43 KMQT 300157
MTRP53
METAR KP53 300156Z AUTO 36021G28KT M07/M11 A3021 RMK AO1 PK WND
35032/0101 SLP240 P0001 T10671106





000
SAUS43 KMQT 300154
MTRP59
METAR KP59 300151Z AUTO 04023G30KT M08/M12 A3031 RMK AO1 PK WND
03035/0121 SLP279 T10831117





000
SAUS43 KMQT 300057
MTRP53
METAR KP53 300056Z AUTO 36022G29KT M06/M09 A3017 RMK AO1 PK WND
35032/0019 SLP227 T10611094





000
SAUS43 KMQT 300053
MTRP59
METAR KP59 300051Z AUTO 04024G38KT M08/M11 A3027 RMK AO1 PK WND
03038/0044 SLP266 T10781111





000
SAUS43 KMQT 300005 COR
MTRP53
METAR KP53 292356Z AUTO 36020G36KT M06/M09 A3012 RMK AO1 PK WND
35036/2347 SLP209 P0001 60001 T10561094 11028 21061 53048





000
SAUS43 KMQT 300004 COR
MTRP53
METAR KP53 292356Z AUTO 36020G36KT M06/M09 A3012 RMK AO1 PK WND
35036/2347 SLP209 P0001 60001 T10561094 11028 21061 53048





000
SAUS43 KMQT 300003 COR
MTRP53
METAR KP53 292356Z AUTO 36020G36KT M06/M09 A3012 RMK AO1 PK WND
35036/2347 SLP209 P0001 60001 T10561094 11028 21061 53048





000
SAUS43 KMQT 292358 COR
MTRP53
METAR KP53 292356Z AUTO 36020G36KT M06/M09 A3012 RMK AO1 PK WND
35036/2347 SLP209 P0001 60001 T10561094 11028 21061 53048





000
SAUS43 KMQT 292357
MTRP53
METAR KP53 292356Z AUTO 36020G36KT M06/M09 A3012 RMK AO1 PK WND
35036/2347 SLP209 P0001 60001 T10561094 11028 21061 53048





000
SAUS43 KMQT 292354
MTRP59
METAR KP59 292351Z AUTO 03027G34KT M07/M11 A3022 RMK AO1 PK WND
36038/2332 SLP248 T10721111 11061 21078 53045





000
SAUS43 KMQT 292257
MTRP53
METAR KP53 292256Z AUTO 36025G36KT M06/M10 A3006 RMK AO1 PK WND
34036/2251 SLP191 T10561100





000
SAUS43 KMQT 292252
MTRP59
METAR KP59 292251Z AUTO 03028G36KT M07/M11 A3017 RMK AO1 PK WND
01038/2200 SLP230 T10721111





000
SAUS43 KMQT 292157
MTRP53
METAR KP53 292156Z AUTO 35025G35KT M06/M09 A3001 RMK AO1 PK WND
34038/2119 SLP174 T10561094





000
SAUS43 KMQT 292153
MTRP59
METAR KP59 292151Z AUTO 04023G36KT M07/M11 A3013 RMK AO1 PK WND
03040/2133 SLP217 T10721111





000
SAUS43 KMQT 292153
MTRP59
METAR KP59 292151Z AUTO 04023G36KT M07/M11 A3013 RMK AO1 PK WND
03040/2133 SLP217 T10721111





000
SAUS43 KMQT 292057
MTRP53
METAR KP53 292056Z AUTO 33025G38KT M06/M09 A2997 RMK AO1 PK WND
33038/2055 SLP159 T10561089 53033





000
SAUS43 KMQT 292054
MTRP59
METAR KP59 292051Z AUTO 03025G33KT M07/M10 A3008 RMK AO1 PK WND
03039/2005 SLP203 T10671100 53037





000
SAUS43 KMQT 291957
MTRP53
METAR KP53 291956Z AUTO 34025G34KT M05/M08 A2993 RMK AO1 PK WND
33037/1944 SLP146 T10501083





000
SAUS43 KMQT 291954
MTRP59
METAR KP59 291951Z AUTO 02026G35KT M07/M10 A3004 RMK AO1 PK WND
03036/1903 SLP186 T10721100





000
SAUS43 KMQT 291857
MTRP53
METAR KP53 291856Z AUTO 35022G32KT M04/M07 A2989 RMK AO1 PK WND
33035/1759 SLP132 T10391067





000
SAUS43 KMQT 291854
MTRP59
METAR KP59 291851Z AUTO 02029G36KT M07/M10 A2999 RMK AO1 PK WND
03038/1838 SLP172 T10721100





000
SAUS43 KMQT 291757
MTRP53
METAR KP53 291756Z AUTO 33022G34KT M03/M06 A2987 RMK AO1 PK WND
36034/1722 SLP125 T10281056 10006 21028 53027





000
SAUS43 KMQT 291754
MTRP59
METAR KP59 291751Z AUTO 03025G35KT M07/M09 A2997 RMK AO1 PK WND
03039/1718 SLP165 T10671089 10000 21067 51036





000
SAUS43 KMQT 291657
MTRP53
METAR KP53 291656Z AUTO 34022G30KT M02/M04 A2985 RMK AO1 PK WND
31035/1622 SLP116 T10171044





000
SAUS43 KMQT 291652
MTRP59
METAR KP59 291651Z AUTO 03029G40KT M06/M08 A2994 RMK AO1 PK WND
02040/1647 SLP152 T10561083





000
SAUS43 KMQT 291557
MTRP53
METAR KP53 291556Z AUTO 34017G27KT 01/M04 A2981 RMK AO1 PK WND
33031/1540 SLP104 T00061044





000
SAUS43 KMQT 291552
MTRP59
METAR KP59 291551Z AUTO 04024G38KT M04/M07 A2991 RMK AO1 PK WND
03040/1515 SLP140 T10441072





000
SAUS43 KMQT 291457
MTRP53
METAR KP53 291456Z AUTO 33013G20KT 01/M02 A2979 RMK AO1 SLP097
T00061022 51014





000
SAUS43 KMQT 291454
MTRP59
METAR KP59 291451Z AUTO 03025G38KT M03/M06 A2987 RMK AO1 PK WND
03038/1445 SLP127 T10331061 53036





000
SAUS43 KMQT 291357
MTRP53
METAR KP53 291356Z AUTO 32006KT M01/M03 A2978 RMK AO1 SLP093
T10061033





000
SAUS43 KMQT 291354
MTRP59
METAR KP59 291351Z AUTO 03024G33KT M01/M04 A2982 RMK AO1 PK WND
03033/1350 SLP108 T10061039





000
SAUS43 KMQT 291257
MTRP53
METAR KP53 291256Z AUTO 00000KT M01/M04 A2977 RMK AO1 SLP088
T10111039





000
SAUS43 KMQT 291254
MTRP59
METAR KP59 291251Z AUTO 02023G27KT 00/M03 A2978 RMK AO1 PK WND
02027/1244 SLP094 T00001033





000
SAUS43 KMQT 291157
MTRP53
METAR KP53 291156Z AUTO 21004KT M02/M04 A2975 RMK AO1 SLP083 60005
70007 T10171039 11006 21022 56014





000
SAUS43 KMQT 291152
MTRP59
METAR KP59 291151Z AUTO 01018G27KT 00/M03 A2976 RMK AO1 PK WND
01027/1146 SLP087 60006 70009 T00001033 10000 21011 53002





000
SAUS43 KMQT 291057
MTRP53
METAR KP53 291056Z AUTO 20004KT M02/M04 A2976 RMK AO1 SLP087 P0002
T10221039





000
SAUS43 KMQT 291052
MTRP59
METAR KP59 291051Z AUTO 36017KT 00/M03 A2974 RMK AO1 SLP082
T00001028





000
SAUS43 KMQT 290957
MTRP53
METAR KP53 290956Z AUTO 20003KT M02/M04 A2977 RMK AO1 SLP090 P0002
T10221039





000
SAUS43 KMQT 290954
MTRP59
METAR KP59 290951Z AUTO 27005KT M01/M03 A2975 RMK AO1 SLP086
T10111028





000
SAUS43 KMQT 290857
MTRP53
METAR KP53 290856Z AUTO 18005KT M02/M04 A2979 RMK AO1 SLP098 P0001
60001 T10171044 56023





000
SAUS43 KMQT 290854
MTRP59
METAR KP59 290851Z AUTO 25007KT M01/M03 A2975 RMK AO1 SLP087 P0001
60006 T10111033 58018





000
SAUS43 KMQT 290757
MTRP53
METAR KP53 290756Z AUTO 18006KT M01/M06 A2981 RMK AO1 SLP104
T10111061





000
SAUS43 KMQT 290754
MTRP59
METAR KP59 290751Z AUTO 24006KT M01/M03 A2977 RMK AO1 SLP094 P0002
T10111033





000
SAUS43 KMQT 290705 COR
MTRP53
METAR KP53 290656Z AUTO 18007KT M01/M07 A2983 RMK AO1 SLP109
T10061067





000
SAUS43 KMQT 290653
MTRP59
METAR KP59 290651Z AUTO 23006KT M01/M03 A2979 RMK AO1 SLP100 P0003
T10111033





000
SAUS43 KMQT 290558
MTRP53
METAR KP53 290556Z AUTO 18005KT M01/M07 A2986 RMK AO1 SLP121
T10061067 10006 21006 58017





000
SAUS43 KMQT 290554
MTRP59
METAR KP59 290551Z AUTO 23006KT M01/M03 A2981 RMK AO1 SLP105 P0001
60001 T10111033 10000 21011 58015





000
SAUS43 KMQT 290457
MTRP53
METAR KP53 290456Z AUTO 17007KT M01/M07 A2989 RMK AO1 SLP132
T10061067 400061111





000
SAUS43 KMQT 290454
MTRP59
METAR KP59 290451Z AUTO 24006KT 00/M04 A2983 RMK AO1 SLP113
T00001044 400001039





000
SAUS43 KMQT 290357
MTRP53
METAR KP53 290356Z AUTO 17008KT 00/M06 A2991 RMK AO1 SLP137
T00001056





000
SAUS43 KMQT 290353
MTRP59
METAR KP59 290351Z AUTO 23007KT 00/M04 A2984 RMK AO1 SLP118
T00001044





000
SAUS43 KMQT 290257
MTRP53
METAR KP53 290256Z AUTO 18012G20KT 00/M05 A2991 RMK AO1 SLP139
T00001050 56015





000
SAUS43 KMQT 290252
MTRP59
METAR KP59 290251Z AUTO VRB04KT 00/M04 A2985 RMK AO1 SLP120
T00001044 55005





000
SAUS43 KMQT 290157
MTRP53
METAR KP53 290156Z AUTO 17013G21KT 00/M04 A2992 RMK AO1 SLP139
T00001039





000
SAUS43 KMQT 290152
MTRP59
METAR KP59 290151Z AUTO 23012G23KT 00/M05 A2981 RMK AO1 PK WND
21028/0054 SLP107 T00001050





000
SAUS43 KMQT 290057
MTRP53
METAR KP53 290056Z AUTO 18015G24KT 01/M03 A2994 RMK AO1 SLP148
T00061033





000
SAUS43 KMQT 290057
MTRP53
METAR KP53 290056Z AUTO 18015G24KT 01/M03 A2994 RMK AO1 SLP148
T00061033





000
SAUS43 KMQT 290053
MTRP59
METAR KP59 290051Z AUTO 22009G24KT 190V250 M01/M06 A2983 RMK AO1
SLP116 T10061056





000
SAUS43 KMQT 290053
MTRP59
METAR KP59 290051Z AUTO 22009G24KT 190V250 M01/M06 A2983 RMK AO1
SLP116 T10061056





000
SAUS43 KMQT 282357
MTRP53
METAR KP53 282356Z AUTO 17009KT 00/M03 A2996 RMK AO1 SLP154 60002
T00001033 10000 21017 56028





000
SAUS43 KMQT 282353
MTRP59
METAR KP59 282351Z AUTO 20008KT 160V250 M01/M06 A2986 RMK AO1 SLP126
60002 T10061056 11006 21017 56021





000
SAUS43 KMQT 282257
MTRP53
METAR KP53 282256Z AUTO 17013G19KT M01/M04 A2998 RMK AO1 SLP162
T10061039





000
SAUS43 KMQT 282254
MTRP59
METAR KP59 282251Z AUTO 22011G27KT M01/M06 A2987 RMK AO1 PK WND
22031/2211 SLP128 T10061056





000
SAUS43 KMQT 282157
MTRP53
METAR KP53 282156Z AUTO 17013G24KT M01/M05 A3001 RMK AO1 SLP172
T10111050





000
SAUS43 KMQT 282154
MTRP59
METAR KP59 282151Z AUTO 22016G26KT M01/M04 A2989 RMK AO1 PK WND
22026/2150 SLP133 T10111044





000
SAUS43 KMQT 282057
MTRP53
METAR KP53 282056Z AUTO 17011KT M01/M05 A3004 RMK AO1 SLP184 P0002
60002 T10111050 56022





000
SAUS43 KMQT 282054
MTRP59
METAR KP59 282051Z AUTO VRB06KT M01/M04 A2993 RMK AO1 SLP148 60002
T10111044 56037





000
SAUS43 KMQT 281957
MTRP53
METAR KP53 281956Z AUTO 19008G15KT M01/M05 A3006 RMK AO1 SLP191
T10111050





000
SAUS43 KMQT 281954
MTRP59
METAR KP59 281951Z AUTO 20005KT M01/M05 A2996 RMK AO1 SLP159 P0002
T10111050





000
SAUS43 KMQT 281857
MTRP53
METAR KP53 281856Z AUTO 19014G25KT M01/M07 A3008 RMK AO1 PK WND
20026/1834 SLP197 T10061067





000
SAUS43 KMQT 281854
MTRP59
METAR KP59 281851Z AUTO 21005KT M02/M06 A2999 RMK AO1 SLP170
T10171056





000
SAUS43 KMQT 281757
MTRP53
METAR KP53 281756Z AUTO 18011G18KT M01/M07 A3011 RMK AO1 SLP207
T10111072 11011 21061 58025





000
SAUS43 KMQT 281753
MTRP59
METAR KP59 281751Z AUTO 00000KT M02/M06 A3004 RMK AO1 SLP185
T10171056 11017 21033 58024





000
SAUS43 KMQT 281657
MTRP53
METAR KP53 281656Z AUTO 19007G17KT M02/M08 A3016 RMK AO1 SLP225
T10171078





000
SAUS43 KMQT 281654
MTRP59
METAR KP59 281651Z AUTO VRB05KT M02/M06 A3007 RMK AO1 SLP196
T10171056





000
SAUS43 KMQT 281557
MTRP53
METAR KP53 281556Z AUTO 19008G20KT M02/M08 A3019 RMK AO1 SLP234
T10221078





000
SAUS43 KMQT 281554
MTRP59
METAR KP59 281551Z AUTO VRB04G14KT M02/M06 A3010 RMK AO1 SLP208
T10171056





000
SAUS43 KMQT 281554
MTRP59
METAR KP59 281551Z AUTO VRB04G14KT M02/M06 A3010 RMK AO1 SLP208
T10171056





    US Dept of Commerce
    National Oceanic and Atmospheric Administration
    National Weather Service
    1325 East West Highway
    Silver Spring, MD 20910
    Page Author: NWS Internet Services Team
Disclaimer
Information Quality
Credits
Glossary
Privacy Policy
Freedom of Information Act (FOIA)
About Us
Career Opportunities